Time;durP1;ratioP1;P1;durP2;ratioP2;P2;SDS_P1;SDS_P2;PMS_P1;PMS_P2;Temp;Humidity;BMP_temperature;BMP_pressure;BME280_temperature;BME280_humidity;BME280_pressure;Samples;Min_cycle;Max_cycle;Signal;HPM_P1;HPM_P2
2023/01/25 00:00:15;;;;;;;31.65;24.40;;;;;;;0.11;100.00;102579.50;5052654;28;20772;-81
2023/01/25 00:02:40;;;;;;;30.27;23.50;;;;;;;0.25;100.00;102591.09;5048471;28;20064;-81
2023/01/25 00:05:05;;;;;;;32.53;23.88;;;;;;;-0.21;100.00;102512.34;5043484;28;20518;-81
2023/01/25 00:07:31;;;;;;;29.00;23.90;;;;;;;0.23;100.00;102585.03;5035013;28;20033;-81
2023/01/25 00:09:56;;;;;;;37.45;25.65;;;;;;;0.28;100.00;102588.59;5043057;28;20025;-81
2023/01/25 00:12:22;;;;;;;33.33;24.85;;;;;;;0.22;100.00;102578.09;5047127;28;20029;-81
2023/01/25 00:14:47;;;;;;;35.90;27.00;;;;;;;0.23;100.00;102577.28;5034969;28;20087;-81
2023/01/25 00:17:13;;;;;;;35.85;26.10;;;;;;;0.27;100.00;102581.69;5043445;28;20028;-82
2023/01/25 00:19:38;;;;;;;31.17;23.77;;;;;;;0.22;100.00;102575.50;5034745;28;20445;-81
2023/01/25 00:22:03;;;;;;;36.22;26.85;;;;;;;0.27;100.00;102576.53;5048206;28;20356;-80
2023/01/25 00:24:29;;;;;;;33.85;24.75;;;;;;;0.23;100.00;102567.81;5034341;28;20029;-81
2023/01/25 00:26:54;;;;;;;35.03;25.33;;;;;;;0.21;100.00;102559.13;5052471;28;20036;-81
2023/01/25 00:29:19;;;;;;;35.13;26.23;;;;;;;0.23;100.00;102567.81;5052063;28;20033;-82
2023/01/25 00:31:54;;;;;;;37.65;25.42;;;;;;;0.21;100.00;102568.59;5031202;28;20033;-81
2023/01/25 00:34:23;;;;;;;34.70;25.25;;;;;;;0.27;100.00;102574.78;5033057;28;20102;-81
2023/01/25 00:37:27;;;;;;;33.05;25.00;;;;;;;0.29;100.00;102572.25;5050707;28;20032;-81
2023/01/25 00:39:52;;;;;;;29.40;23.63;;;;;;;0.17;100.00;102553.84;5051652;28;20028;-81
2023/01/25 00:42:18;;;;;;;31.10;24.92;;;;;;;0.27;100.00;102569.63;5049290;28;20048;-81
2023/01/25 00:44:44;;;;;;;30.77;23.55;;;;;;;0.26;100.00;102561.84;5052103;28;20036;-84
2023/01/25 00:47:10;;;;;;;35.60;25.05;;;;;;;-0.01;100.00;102516.34;5065314;28;20029;-82
2023/01/25 00:49:36;;;;;;;35.72;24.67;;;;;;;0.09;100.00;102543.31;5023046;28;20132;-82
2023/01/25 00:52:03;;;;;;;28.50;22.55;;;;;;;0.20;100.00;102557.41;5027020;28;20139;-82
2023/01/25 00:54:28;;;;;;;33.28;25.27;;;;;;;0.15;100.00;102556.38;5032538;28;20041;-81
2023/01/25 00:56:55;;;;;;;33.97;26.13;;;;;;;0.14;100.00;102551.16;5047463;28;20098;-82
2023/01/25 00:59:23;;;;;;;34.83;24.90;;;;;;;0.18;100.00;102563.34;5050400;28;20025;-83
2023/01/25 01:01:49;;;;;;;29.50;24.40;;;;;;;0.16;100.00;102546.94;5033080;28;20390;-83
2023/01/25 01:04:14;;;;;;;45.90;27.10;;;;;;;-0.01;100.00;102529.28;5052673;28;20032;-83
2023/01/25 01:06:40;;;;;;;32.65;24.63;;;;;;;-0.05;100.00;102529.13;5052625;28;20498;-82
2023/01/25 01:09:10;;;;;;;35.53;25.35;;;;;;;-0.04;100.00;102530.91;5052091;28;20076;-80
2023/01/25 01:11:35;;;;;;;36.35;24.85;;;;;;;0.08;100.00;102551.00;5033391;28;20072;-85
2023/01/25 01:14:01;;;;;;;30.27;24.85;;;;;;;0.07;100.00;102544.09;5049309;28;20025;-81
2023/01/25 01:16:26;;;;;;;33.78;25.45;;;;;;;0.05;100.00;102540.59;5051631;28;20037;-81
2023/01/25 01:18:52;;;;;;;32.45;26.10;;;;;;;-0.32;100.00;102472.44;5034387;28;20052;-81
2023/01/25 01:21:17;;;;;;;35.20;25.50;;;;;;;-0.03;100.00;102525.75;5052395;28;20479;-82
2023/01/25 01:23:43;;;;;;;32.45;24.80;;;;;;;0.11;100.00;102540.75;5049830;28;20032;-83
2023/01/25 01:26:13;;;;;;;35.50;25.13;;;;;;;0.10;100.00;102536.44;5052973;28;20091;-81
2023/01/25 01:28:38;;;;;;;35.40;26.40;;;;;;;-0.09;100.00;102514.38;5033843;28;20028;-81
2023/01/25 01:31:10;;;;;;;32.67;25.80;;;;;;;0.04;100.00;102533.66;5052175;28;20028;-81
2023/01/25 01:33:36;;;;;;;34.03;24.20;;;;;;;0.09;100.00;102547.59;5051538;28;20044;-81
2023/01/25 01:36:08;;;;;;;37.83;26.92;;;;;;;0.13;100.00;102539.09;5018164;28;20372;-82
2023/01/25 01:38:34;;;;;;;35.33;25.80;;;;;;;0.08;100.00;102530.31;5050701;28;20059;-81
2023/01/25 01:40:59;;;;;;;37.60;25.80;;;;;;;0.11;100.00;102531.28;5037465;28;20476;-82
2023/01/25 01:43:25;;;;;;;34.05;25.55;;;;;;;0.08;100.00;102535.50;5034789;28;20506;-82
2023/01/25 01:45:52;;;;;;;32.67;25.10;;;;;;;0.11;100.00;102538.16;5053019;28;20067;-83
2023/01/25 01:48:37;;;;;;;32.17;25.23;;;;;;;0.04;100.00;102523.31;5053201;28;20032;-83
2023/01/25 01:51:13;;;;;;;35.35;24.67;;;;;;;-0.16;100.00;102496.97;5049636;28;20033;-79
2023/01/25 01:53:42;;;;;;;33.38;25.77;;;;;;;0.00;100.00;102530.16;5048086;28;21358;-80
2023/01/25 01:56:10;;;;;;;35.70;26.15;;;;;;;-0.10;100.00;102510.91;5039021;28;20025;-80
2023/01/25 01:58:35;;;;;;;33.33;26.35;;;;;;;-0.10;100.00;102516.06;5044820;28;20025;-80
2023/01/25 02:01:01;;;;;;;34.58;26.35;;;;;;;0.03;100.00;102537.97;5033304;28;20685;-82
2023/01/25 02:03:27;;;;;;;33.20;26.65;;;;;;;0.02;100.00;102533.63;5033068;28;20086;-79
2023/01/25 02:06:11;;;;;;;35.10;26.50;;;;;;;-0.04;100.00;102520.56;5032524;28;20406;-80
2023/01/25 02:08:39;;;;;;;32.42;25.48;;;;;;;0.03;100.00;102531.94;5050822;28;20036;-81
2023/01/25 02:11:06;;;;;;;37.40;25.30;;;;;;;0.04;100.00;102529.38;5051493;28;20033;-82
2023/01/25 02:13:31;;;;;;;32.72;23.52;;;;;;;-0.13;100.00;102516.00;5032513;28;20079;-80
2023/01/25 02:15:57;;;;;;;36.60;27.00;;;;;;;-0.46;100.00;102455.69;5032527;28;20499;-81
2023/01/25 02:18:23;;;;;;;38.17;26.45;;;;;;;0.03;100.00;102537.97;5050353;28;20079;-81
2023/01/25 02:20:53;;;;;;;33.15;24.88;;;;;;;-0.02;100.00;102529.22;5049144;28;20021;-80
2023/01/25 02:24:03;;;;;;;32.53;25.75;;;;;;;0.04;100.00;102539.72;5051305;28;20017;-81
2023/01/25 02:26:28;;;;;;;34.75;25.42;;;;;;;0.04;100.00;102533.66;5046169;28;20048;-79
2023/01/25 02:29:05;;;;;;;33.33;26.02;;;;;;;-0.06;100.00;102528.25;5067468;28;20035;-82
2023/01/25 02:31:31;;;;;;;29.20;23.45;;;;;;;0.05;100.00;102536.31;5017668;28;20407;-81
2023/01/25 02:33:56;;;;;;;29.52;24.50;;;;;;;-0.03;100.00;102528.34;5050791;28;20036;-81
2023/01/25 02:36:30;;;;;;;33.45;26.33;;;;;;;0.04;100.00;102538.81;5050584;28;20048;-80
2023/01/25 02:39:04;;;;;;;33.03;26.52;;;;;;;-0.03;100.00;102525.75;5037437;28;20033;-81
2023/01/25 02:41:34;;;;;;;33.47;25.13;;;;;;;-0.08;100.00;102519.59;5020913;28;20111;-81
2023/01/25 02:44:03;;;;;;;35.80;27.23;;;;;;;-0.07;100.00;102516.16;5051370;28;20075;-80
2023/01/25 02:46:32;;;;;;;31.00;25.23;;;;;;;-0.05;100.00;102523.97;5031300;28;20033;-81
2023/01/25 02:48:59;;;;;;;33.03;25.20;;;;;;;-0.02;100.00;102527.50;5051590;28;20021;-82
2023/01/25 02:51:26;;;;;;;34.97;25.77;;;;;;;-0.04;100.00;102521.44;5051729;28;20025;-81
2023/01/25 02:53:51;;;;;;;29.30;24.42;;;;;;;-0.07;100.00;102510.16;5050289;28;20468;-81
2023/01/25 02:56:17;;;;;;;35.88;26.20;;;;;;;0.00;100.00;102525.81;5067351;28;20021;-80
2023/01/25 02:58:43;;;;;;;37.97;26.35;;;;;;;-0.01;100.00;102523.22;5033387;28;20024;-82
2023/01/25 03:01:09;;;;;;;34.83;26.52;;;;;;;-0.05;100.00;102509.34;5051102;28;20025;-81
2023/01/25 03:03:35;;;;;;;36.75;27.48;;;;;;;-0.07;100.00;102512.72;5050138;28;20029;-82
2023/01/25 03:06:00;;;;;;;33.63;25.88;;;;;;;-0.06;100.00;102523.09;5052109;28;20691;-80
2023/01/25 03:08:26;;;;;;;31.13;25.27;;;;;;;-0.12;100.00;102501.38;5049535;28;20029;-81
2023/01/25 03:10:55;;;;;;;35.97;27.40;;;;;;;-0.17;100.00;102496.06;5066157;28;20041;-80
2023/01/25 03:13:20;;;;;;;40.38;27.48;;;;;;;-0.10;100.00;102510.91;5049755;28;20052;-82
2023/01/25 03:15:46;;;;;;;39.92;27.35;;;;;;;-0.08;100.00;102516.13;5034016;28;20479;-81
2023/01/25 03:18:11;;;;;;;32.47;26.63;;;;;;;-0.15;100.00;102501.31;5049932;28;20057;-82
2023/01/25 03:20:36;;;;;;;34.53;26.52;;;;;;;-0.13;100.00;102508.25;5050713;28;20072;-82
2023/01/25 03:23:02;;;;;;;37.10;27.45;;;;;;;-0.15;100.00;102502.19;5051423;28;20052;-81
2023/01/25 03:25:27;;;;;;;29.70;25.58;;;;;;;-0.17;100.00;102495.22;5052307;28;20061;-81
2023/01/25 03:27:53;;;;;;;33.97;27.02;;;;;;;-0.16;100.00;102496.97;5052147;28;20470;-82
2023/01/25 03:30:19;;;;;;;38.83;27.38;;;;;;;-0.18;100.00;102496.94;5046872;28;20029;-81
2023/01/25 03:32:44;;;;;;;36.25;27.00;;;;;;;-0.24;100.00;102477.81;5050774;28;20040;-81
2023/01/25 03:35:09;;;;;;;39.30;28.52;;;;;;;-0.18;100.00;102491.78;5054627;28;20100;-84
2023/01/25 03:37:35;;;;;;;33.75;26.88;;;;;;;-0.17;100.00;102496.06;5036346;28;20036;-81
2023/01/25 03:40:00;;;;;;;35.65;27.80;;;;;;;-0.13;100.00;102494.44;5053472;28;20025;-79
2023/01/25 03:42:26;;;;;;;38.50;28.55;;;;;;;-0.15;100.00;102491.84;5053590;28;20029;-81
2023/01/25 03:44:51;;;;;;;36.42;28.83;;;;;;;-0.15;100.00;102486.69;5036233;28;20025;-81
2023/01/25 03:47:16;;;;;;;35.92;27.02;;;;;;;-0.08;100.00;102503.22;5052969;28;20086;-81
2023/01/25 03:49:42;;;;;;;40.50;28.02;;;;;;;-0.16;100.00;102479.75;5053963;28;20032;-81
2023/01/25 03:52:07;;;;;;;36.67;27.88;;;;;;;-0.15;100.00;102480.63;5053517;28;20028;-81
2023/01/25 03:54:33;;;;;;;37.00;28.75;;;;;;;-0.16;100.00;102482.34;5035245;28;20348;-82
2023/01/25 03:56:58;;;;;;;35.97;27.95;;;;;;;-0.08;100.00;102493.75;5039967;28;20020;-82
2023/01/25 03:59:24;;;;;;;35.30;27.08;;;;;;;-0.11;100.00;102492.81;5036906;28;20486;-82
2023/01/25 04:01:50;;;;;;;35.83;26.60;;;;;;;-0.14;100.00;102490.16;5046158;28;20036;-83
2023/01/25 04:04:15;;;;;;;32.00;25.15;;;;;;;-0.30;100.00;102462.13;5037423;28;20471;-83
2023/01/25 04:06:40;;;;;;;37.95;27.52;;;;;;;-0.16;100.00;102484.03;5051049;28;20039;-81
2023/01/25 04:09:06;;;;;;;36.65;26.23;;;;;;;-0.10;100.00;102490.25;5036498;28;20464;-81
2023/01/25 04:11:32;;;;;;;36.78;27.58;;;;;;;-0.11;100.00;102488.53;5052345;28;20564;-83
2023/01/25 04:13:57;;;;;;;36.65;28.80;;;;;;;-0.14;100.00;102480.69;5053726;28;20499;-81
2023/01/25 04:16:23;;;;;;;38.00;28.42;;;;;;;-0.12;100.00;102494.50;5053016;28;20503;-81
2023/01/25 04:18:48;;;;;;;37.03;28.05;;;;;;;-0.12;100.00;102476.44;5053239;28;20031;-81
2023/01/25 04:21:13;;;;;;;36.38;27.08;;;;;;;-0.09;100.00;102484.25;5052670;28;20496;-81
2023/01/25 04:23:39;;;;;;;37.47;28.55;;;;;;;-0.15;100.00;102483.22;5067180;28;20132;-81
2023/01/25 04:26:06;;;;;;;36.38;29.65;;;;;;;-0.20;100.00;102462.41;5051943;28;20029;-82
2023/01/25 04:28:32;;;;;;;39.53;30.48;;;;;;;-0.25;100.00;102469.19;5039759;28;20067;-80
2023/01/25 04:30:58;;;;;;;47.55;31.88;;;;;;;-0.38;100.00;102443.88;5050639;28;20079;-81
2023/01/25 04:33:24;;;;;;;48.65;35.05;;;;;;;-0.26;100.00;102477.75;5065649;28;20025;-81
2023/01/25 04:35:49;;;;;;;49.47;33.92;;;;;;;-0.24;100.00;102475.22;5051976;28;20490;-82
2023/01/25 04:38:15;;;;;;;46.72;34.50;;;;;;;-0.26;100.00;102476.88;5053543;28;20068;-81
2023/01/25 04:40:41;;;;;;;45.60;32.65;;;;;;;-0.22;100.00;102463.22;5035921;28;20021;-83
2023/01/25 04:43:07;;;;;;;37.92;29.85;;;;;;;-0.24;100.00;102458.03;5068801;28;20052;-83
2023/01/25 04:45:32;;;;;;;44.47;31.13;;;;;;;-0.37;100.00;102429.25;5052896;28;20788;-84
2023/01/25 04:48:01;;;;;;;41.63;30.65;;;;;;;-0.20;100.00;102446.03;5053076;28;20035;-82
2023/01/25 04:50:27;;;;;;;46.65;31.58;;;;;;;-0.17;100.00;102453.91;5034672;28;20029;-81
2023/01/25 04:52:53;;;;;;;44.65;31.13;;;;;;;-0.23;100.00;102436.50;5039668;28;20387;-81
2023/01/25 04:55:19;;;;;;;41.08;30.98;;;;;;;-0.31;100.00;102417.38;5053038;28;20039;-82
2023/01/25 04:57:44;;;;;;;44.42;32.42;;;;;;;-0.16;100.00;102442.72;5052611;28;20029;-81
2023/01/25 05:00:10;;;;;;;37.20;30.88;;;;;;;-0.22;100.00;102437.38;5053359;28;20048;-82
2023/01/25 05:02:36;;;;;;;42.30;32.15;;;;;;;-0.24;100.00;102434.78;5052931;28;20498;-82
2023/01/25 05:05:01;;;;;;;41.35;32.88;;;;;;;-0.19;100.00;102440.94;5041075;28;20029;-83
2023/01/25 05:07:27;;;;;;;44.55;32.03;;;;;;;-0.16;100.00;102441.00;5053804;28;20395;-82
2023/01/25 05:09:52;;;;;;;43.25;33.17;;;;;;;-0.24;100.00;102421.00;5053584;28;20044;-82
2023/01/25 05:12:17;;;;;;;45.80;33.95;;;;;;;-0.24;100.00;102421.88;5053893;28;20028;-83
2023/01/25 05:14:43;;;;;;;44.67;32.40;;;;;;;-0.28;100.00;102427.78;5053567;28;20033;-83
2023/01/25 05:17:08;;;;;;;44.97;34.22;;;;;;;-0.24;100.00;102439.06;5040948;28;20513;-83
2023/01/25 05:19:34;;;;;;;42.35;31.27;;;;;;;-0.26;100.00;102426.09;5035454;28;20025;-83
2023/01/25 05:22:01;;;;;;;47.78;32.13;;;;;;;-0.17;100.00;102436.66;5029972;28;20044;-83
2023/01/25 05:24:29;;;;;;;44.05;32.55;;;;;;;-0.23;100.00;102423.59;5047177;28;20033;-82
2023/01/25 05:27:04;;;;;;;42.58;32.05;;;;;;;-0.63;100.00;102348.50;5035209;28;20071;-82
2023/01/25 05:29:31;;;;;;;48.15;33.95;;;;;;;-0.27;100.00;102413.16;5036426;28;20029;-84
2023/01/25 05:31:57;;;;;;;45.22;31.73;;;;;;;-0.20;100.00;102421.09;5022533;28;20016;-84
2023/01/25 05:34:23;;;;;;;47.10;34.45;;;;;;;-0.16;100.00;102422.03;5035320;28;20086;-85
2023/01/25 05:36:48;;;;;;;51.63;33.67;;;;;;;-0.12;100.00;102440.25;5052254;28;20025;-81
2023/01/25 05:39:14;;;;;;;45.70;32.50;;;;;;;-0.17;100.00;102421.16;5053320;28;20029;-83
2023/01/25 05:41:39;;;;;;;43.25;32.80;;;;;;;-0.24;100.00;102408.97;5053604;28;20024;-83
2023/01/25 05:44:04;;;;;;;48.85;33.95;;;;;;;-0.20;100.00;102412.47;5042276;28;20037;-84
2023/01/25 05:46:30;;;;;;;43.50;32.40;;;;;;;-0.14;100.00;102423.88;5053110;28;20075;-82
2023/01/25 05:48:55;;;;;;;45.15;32.65;;;;;;;-0.17;100.00;102426.34;5051985;28;20044;-83
2023/01/25 05:51:21;;;;;;;44.55;31.55;;;;;;;-0.28;100.00;102407.13;5052377;28;20380;-85
2023/01/25 05:53:46;;;;;;;46.10;33.10;;;;;;;-0.19;100.00;102422.84;5035541;28;20032;-84
2023/01/25 05:56:12;;;;;;;48.83;32.10;;;;;;;-0.30;100.00;102402.72;5053262;28;20033;-85
2023/01/25 05:58:38;;;;;;;41.53;30.05;;;;;;;-0.22;100.00;102415.03;5034442;28;20025;-85
2023/01/25 06:01:05;;;;;;;43.80;31.13;;;;;;;-0.17;100.00;102425.50;5035172;28;20032;-85
2023/01/25 06:03:31;;;;;;;48.53;34.92;;;;;;;-0.34;100.00;102396.63;5050409;28;20503;-84
2023/01/25 06:05:58;;;;;;;44.58;32.13;;;;;;;-0.58;100.00;102350.41;5068165;28;20020;-86
2023/01/25 06:08:24;;;;;;;45.97;32.85;;;;;;;-0.26;100.00;102415.78;5052860;28;20036;-86
2023/01/25 06:10:49;;;;;;;48.72;32.20;;;;;;;-0.25;100.00;102448.53;5058734;28;20360;-86
2023/01/25 06:13:15;;;;;;;45.58;31.65;;;;;;;-0.26;100.00;102422.66;5034577;28;20037;-85
2023/01/25 06:15:41;;;;;;;40.60;29.42;;;;;;;-0.29;100.00;102419.97;5034849;28;20095;-85
2023/01/25 06:18:06;;;;;;;43.25;31.63;;;;;;;-0.38;100.00;102402.56;5052809;28;20108;-86
2023/01/25 06:20:32;;;;;;;43.90;31.92;;;;;;;-0.36;100.00;102408.63;5052913;28;20064;-84
2023/01/25 06:22:58;;;;;;;49.10;31.90;;;;;;;-0.35;100.00;102417.25;5051126;28;20063;-87
2023/01/25 06:25:23;;;;;;;43.15;32.50;;;;;;;-0.46;100.00;102398.88;5033580;28;20045;-87
2023/01/25 06:27:49;;;;;;;43.88;30.95;;;;;;;-0.41;100.00;102405.06;5038765;28;20424;-85
2023/01/25 06:30:14;;;;;;;38.90;30.10;;;;;;;-0.48;100.00;102385.06;5052200;28;20052;-86
2023/01/25 06:32:40;;;;;;;39.55;28.92;;;;;;;-0.42;100.00;102403.28;5039187;28;20517;-85
2023/01/25 06:35:05;;;;;;;41.58;27.65;;;;;;;-0.42;100.00;102405.88;5052741;28;20090;-84
2023/01/25 06:37:31;;;;;;;42.45;29.35;;;;;;;-0.44;100.00;102410.09;5052388;28;20033;-83
2023/01/25 06:39:56;;;;;;;44.28;31.38;;;;;;;-0.61;100.00;102388.16;5052708;28;20087;-83
2023/01/25 06:42:25;;;;;;;45.95;31.40;;;;;;;-0.57;100.00;102392.53;5034052;28;20079;-84
2023/01/25 06:44:50;;;;;;;44.40;29.95;;;;;;;-0.52;100.00;102406.47;5052464;28;20036;-85
2023/01/25 06:47:15;;;;;;;47.78;31.30;;;;;;;-0.76;100.00;102375.69;5049044;28;20040;-86
2023/01/25 06:49:41;;;;;;;43.90;29.25;;;;;;;-0.63;100.00;102393.25;5047987;28;20025;-84
2023/01/25 06:52:06;;;;;;;44.60;29.33;;;;;;;-0.88;100.00;102344.38;5052257;28;20427;-85
2023/01/25 06:54:32;;;;;;;41.13;29.15;;;;;;;-0.56;100.00;102399.47;5046442;28;20116;-84
2023/01/25 06:56:58;;;;;;;45.75;30.90;;;;;;;-0.60;100.00;102389.88;5045698;28;20029;-84
2023/01/25 06:59:23;;;;;;;42.47;30.30;;;;;;;-0.63;100.00;102374.31;5035604;28;20031;-85
2023/01/25 07:01:49;;;;;;;43.25;28.55;;;;;;;-0.59;100.00;102391.66;5033685;28;20031;-85
2023/01/25 07:04:14;;;;;;;42.17;29.00;;;;;;;-0.51;100.00;102395.31;5056038;28;20036;-85
2023/01/25 07:06:40;;;;;;;45.83;30.58;;;;;;;-0.51;100.00;102392.72;5054110;28;20033;-85
2023/01/25 07:09:08;;;;;;;42.72;29.52;;;;;;;-0.45;100.00;102397.19;5055879;28;20036;-86
2023/01/25 07:11:33;;;;;;;52.55;34.90;;;;;;;-0.59;100.00;102381.31;5055384;28;20107;-83
2023/01/25 07:13:59;;;;;;;58.17;36.03;;;;;;;-0.53;100.00;102404.72;5056174;28;20108;-87
2023/01/25 07:16:25;;;;;;;61.88;38.88;;;;;;;-0.57;100.00;102408.03;5065172;28;20035;-86
2023/01/25 07:18:50;;;;;;;56.30;37.78;;;;;;;-0.63;100.00;102398.44;5046301;28;20726;-86
2023/01/25 07:21:21;;;;;;;68.03;42.72;;;;;;;-0.67;100.00;102401.75;5028259;28;20033;-85
2023/01/25 07:23:51;;;;;;;64.80;42.75;;;;;;;-0.77;100.00;102383.38;5032086;28;20028;-86
2023/01/25 07:26:22;;;;;;;61.25;41.60;;;;;;;-0.83;100.00;102378.06;5044733;28;20037;-87
2023/01/25 07:28:48;;;;;;;66.85;44.40;;;;;;;-0.67;100.00;102396.59;5026408;28;20139;-85
2023/01/25 07:31:14;;;;;;;64.50;41.08;;;;;;;-0.78;100.00;102399.72;5026869;28;20519;-85
2023/01/25 07:33:40;;;;;;;58.92;40.20;;;;;;;-0.81;100.00;102391.91;5021328;28;20075;-86
2023/01/25 07:36:07;;;;;;;58.75;37.75;;;;;;;-0.79;100.00;102397.97;5043252;28;20029;-85
2023/01/25 07:38:34;;;;;;;53.55;37.20;;;;;;;-0.91;100.00;102382.16;5045019;28;20048;-85
2023/01/25 07:41:00;;;;;;;63.33;38.97;;;;;;;-0.81;100.00;102386.75;5035764;28;20032;-87
2023/01/25 07:43:25;;;;;;;62.38;39.13;;;;;;;-0.73;100.00;102411.91;5013951;28;20065;-77
2023/01/25 07:45:52;;;;;;;98.63;60.08;;;;;;;-0.83;100.00;102393.53;5042716;28;21494;-86
2023/01/25 07:48:18;;;;;;;66.38;41.65;;;;;;;-0.73;100.00;102406.75;5044017;28;20032;-86
2023/01/25 07:51:10;;;;;;;62.08;39.13;;;;;;;-0.71;100.00;102405.06;5023471;28;20045;-86
2023/01/25 07:53:38;;;;;;;63.10;38.35;;;;;;;-0.82;100.00;102383.28;5022613;28;20048;-86
2023/01/25 07:56:05;;;;;;;61.95;39.50;;;;;;;-0.66;100.00;102403.50;5038985;28;20036;-86
2023/01/25 07:58:30;;;;;;;52.67;36.03;;;;;;;-0.88;100.00;102361.59;5041692;28;20032;-86
2023/01/25 08:00:55;;;;;;;58.85;37.05;;;;;;;-1.05;100.00;102323.28;5049132;28;20036;-87
2023/01/25 08:03:21;;;;;;;59.15;39.90;;;;;;;-0.59;100.00;102394.22;5044329;28;20049;-87
2023/01/25 08:05:47;;;;;;;54.90;36.88;;;;;;;-0.63;100.00;102376.91;5048805;28;20479;-86
2023/01/25 08:08:13;;;;;;;60.03;39.15;;;;;;;-0.71;100.00;102378.41;5048048;28;20099;-86
2023/01/25 08:10:38;;;;;;;63.53;41.92;;;;;;;-0.61;100.00;102406.22;5009800;28;20033;-86
2023/01/25 08:13:05;;;;;;;61.88;41.13;;;;;;;-1.26;100.00;102291.75;5021718;28;20068;-86
2023/01/25 08:15:31;;;;;;;53.33;38.45;;;;;;;-0.80;100.00;102381.59;5018759;28;20077;-86
2023/01/25 08:18:00;;;;;;;61.05;40.97;;;;;;;-0.75;100.00;102397.22;5036000;28;20052;-87
2023/01/25 08:20:25;;;;;;;71.93;45.60;;;;;;;-0.89;100.00;102393.38;5040518;28;20128;-85
2023/01/25 08:22:51;;;;;;;62.53;43.17;;;;;;;-1.08;100.00;102371.31;5040766;28;20025;-86
2023/01/25 08:25:17;;;;;;;60.55;41.63;;;;;;;-0.80;100.00;102394.50;5023682;28;20033;-87
2023/01/25 08:27:42;;;;;;;63.58;41.83;;;;;;;-0.92;100.00;102372.66;5034259;28;20845;-86
2023/01/25 08:30:08;;;;;;;57.40;38.75;;;;;;;-0.85;100.00;102379.72;5008768;28;20124;-86
2023/01/25 08:32:35;;;;;;;62.72;40.45;;;;;;;-1.07;100.00;102353.31;5023283;28;20032;-86
2023/01/25 08:35:00;;;;;;;64.63;40.65;;;;;;;-0.79;100.00;102382.47;4991407;28;20117;-86
2023/01/25 08:37:28;;;;;;;65.68;42.47;;;;;;;-0.73;100.00;102390.38;5027160;28;20025;-86
2023/01/25 08:39:56;;;;;;;66.80;41.90;;;;;;;-0.77;100.00;102373.94;5021775;28;20036;-86
2023/01/25 08:42:22;;;;;;;63.55;40.25;;;;;;;-0.87;100.00;102342.69;5024870;28;20921;-85
2023/01/25 08:44:47;;;;;;;60.90;38.35;;;;;;;-0.60;100.00;102382.13;5027964;28;20037;-86
2023/01/25 08:47:12;;;;;;;58.92;36.90;;;;;;;-0.60;100.00;102374.41;5026999;28;20924;-87
2023/01/25 08:49:38;;;;;;;53.72;37.85;;;;;;;-0.57;100.00;102377.06;5028958;28;20917;-86
2023/01/25 08:52:03;;;;;;;53.03;37.58;;;;;;;-0.57;100.00;102379.63;5029900;28;20145;-86
2023/01/25 08:54:29;;;;;;;54.67;36.97;;;;;;;-0.54;100.00;102387.47;5023018;28;20021;-86
2023/01/25 08:56:55;;;;;;;53.33;36.67;;;;;;;-0.48;100.00;102391.94;5018741;28;20044;-86
2023/01/25 08:59:20;;;;;;;48.20;35.90;;;;;;;-0.48;100.00;102376.44;5027677;28;20037;-86
2023/01/25 09:01:45;;;;;;;54.58;38.08;;;;;;;-0.53;100.00;102371.16;5032091;28;20083;-86
2023/01/25 09:04:11;;;;;;;59.90;39.83;;;;;;;-0.55;100.00;102375.41;5019401;28;20029;-86
2023/01/25 09:06:36;;;;;;;56.30;36.70;;;;;;;-0.60;100.00;102370.13;5035509;28;20032;-86
2023/01/25 09:09:03;;;;;;;51.00;37.00;;;;;;;-0.86;100.00;102326.38;5034166;28;20029;-86
2023/01/25 09:11:29;;;;;;;52.65;36.38;;;;;;;-1.08;100.00;102299.97;5015054;28;20056;-86
2023/01/25 09:13:54;;;;;;;58.17;38.55;;;;;;;-0.83;100.00;102336.78;5044353;28;20420;-86
2023/01/25 09:16:27;;;;;;;58.45;39.55;;;;;;;-0.69;100.00;102371.56;5037765;28;20033;-86
2023/01/25 09:18:54;;;;;;;66.70;42.20;;;;;;;-1.07;100.00;102316.34;5026967;28;20137;-86
2023/01/25 09:21:19;;;;;;;59.20;39.78;;;;;;;-0.75;100.00;102356.81;5043528;28;20707;-86
2023/01/25 09:23:48;;;;;;;62.25;40.65;;;;;;;-0.64;100.00;102372.56;5040285;28;20029;-86
2023/01/25 09:26:14;;;;;;;67.93;46.67;;;;;;;-0.62;100.00;102365.75;5041770;28;20839;-86
2023/01/25 09:28:41;;;;;;;69.10;43.65;;;;;;;-0.89;100.00;102313.41;5053202;28;20086;-86
2023/01/25 09:31:06;;;;;;;67.28;46.20;;;;;;;-0.59;100.00;102352.94;5024169;28;20033;-86
2023/01/25 09:33:35;;;;;;;72.13;47.42;;;;;;;-0.53;100.00;102358.25;5021190;28;20048;-86
2023/01/25 09:36:03;;;;;;;65.55;45.80;;;;;;;-1.25;100.00;102244.50;5020075;28;20029;-86
2023/01/25 09:38:29;;;;;;;70.07;46.90;;;;;;;-0.64;100.00;102352.78;5045464;28;20386;-85
2023/01/25 09:41:11;;;;;;;77.18;47.00;;;;;;;-0.91;100.00;102302.19;5043595;28;20080;-86
2023/01/25 09:43:51;;;;;;;72.22;45.00;;;;;;;-0.61;100.00;102354.59;5024821;28;20044;-87
2023/01/25 09:46:51;;;;;;;68.88;41.47;;;;;;;-0.93;100.00;102299.53;5040293;28;20863;-86
2023/01/25 09:49:21;;;;;;;77.53;43.45;;;;;;;-0.61;100.00;102354.59;5043199;27;20043;-87
2023/01/25 09:52:07;;;;;;;69.10;44.05;;;;;;;-0.62;100.00;102347.69;5132914;27;20072;-86
2023/01/25 09:54:39;;;;;;;65.82;41.95;;;;;;;-0.71;100.00;102329.38;5038510;27;20108;-87
2023/01/25 09:57:17;;;;;;;63.15;42.85;;;;;;;-1.34;100.00;102213.31;5021382;27;20073;-85
2023/01/25 09:59:44;;;;;;;66.18;40.70;;;;;;;-0.66;100.00;102336.41;5079583;27;20149;-85
2023/01/25 10:02:29;;;;;;;65.55;42.08;;;;;;;-0.73;100.00;102315.56;5115973;27;20033;-86
2023/01/25 10:04:57;;;;;;;64.05;39.85;;;;;;;-0.85;100.00;102292.88;5023438;28;20040;-86
2023/01/25 10:07:24;;;;;;;71.80;42.63;;;;;;;-0.50;100.00;102345.41;5029629;28;20634;-85
2023/01/25 10:10:04;;;;;;;75.22;43.28;;;;;;;-0.78;100.00;102314.56;5022604;27;20084;-83
2023/01/25 10:12:35;;;;;;;72.30;45.22;;;;;;;-0.56;100.00;102347.84;5010717;27;20037;-84
2023/01/25 10:15:00;;;;;;;68.70;44.22;;;;;;;-0.62;100.00;102342.53;5032922;27;20051;-85
2023/01/25 10:17:37;;;;;;;76.65;46.13;;;;;;;-0.86;100.00;102308.31;5026737;27;20811;-84
2023/01/25 10:20:14;;;;;;;78.22;47.30;;;;;;;-0.59;100.00;102347.75;5112613;27;20480;-85
2023/01/25 10:23:00;;;;;;;74.55;45.55;;;;;;;-0.60;100.00;102348.59;5072133;27;20033;-85
2023/01/25 10:25:44;;;;;;;69.40;45.95;;;;;;;-0.71;100.00;102324.22;5040761;27;20126;-83
2023/01/25 10:28:16;;;;;;;;;;;;;;;-0.63;100.00;102345.94;5021806;28;20052;-84
2023/01/25 10:31:04;;;;;;;78.28;46.65;;;;;;;-0.67;100.00;102328.59;5022680;27;20328;-85
2023/01/25 10:33:32;;;;;;;83.28;49.40;;;;;;;-0.72;100.00;102325.03;5022571;27;20467;-86
2023/01/25 10:36:01;;;;;;;82.65;51.78;;;;;;;-1.24;100.00;102235.06;5057389;27;20930;-85
2023/01/25 10:38:26;;;;;;;95.70;54.20;;;;;;;-0.65;100.00;102326.97;5033411;27;20042;-85
2023/01/25 10:41:01;;;;;;;87.50;51.63;;;;;;;-0.70;100.00;102306.19;5022317;27;20064;-85
2023/01/25 10:43:26;;;;;;;75.18;48.25;;;;;;;-0.81;100.00;102273.22;5028407;27;20094;-85
2023/01/25 10:45:51;;;;;;;74.45;47.22;;;;;;;-0.57;100.00;102305.66;5075361;27;20038;-84
2023/01/25 10:48:21;;;;;;;69.15;44.92;;;;;;;-0.58;100.00;102292.72;5029755;27;20113;-84
2023/01/25 10:50:49;;;;;;;71.13;44.20;;;;;;;-0.48;100.00;102305.03;5033665;27;20040;-83
2023/01/25 10:53:22;;;;;;;79.45;45.83;;;;;;;-0.46;100.00;102295.63;5025521;27;20040;-73
2023/01/25 10:56:26;;;;;;;71.87;44.60;;;;;;;-0.49;100.00;102300.69;5014418;27;20128;-75
2023/01/25 10:58:59;;;;;;;76.90;47.63;;;;;;;-0.55;100.00;102277.31;5005609;27;20774;-84
2023/01/25 11:01:30;;;;;;;75.50;48.95;;;;;;;-0.52;100.00;102282.56;4997595;28;20033;-84
2023/01/25 11:03:56;;;;;;;82.30;47.97;;;;;;;-0.53;100.00;102285.97;5013832;27;20093;-86
2023/01/25 11:06:35;;;;;;;74.95;48.38;;;;;;;-0.47;100.00;102280.94;4994714;28;20877;-84